sensor_id;sensor_type;location;lat;lon;timestamp;pressure;altitude;pressure_sealevel;temperature;humidity
41334;BME280;27078;46.428;6.256;2023-03-04T00:01:10;96840.91;;;3.49;100.00
41334;BME280;27078;46.428;6.256;2023-03-04T00:03:35;96836.13;;;3.57;100.00
41334;BME280;27078;46.428;6.256;2023-03-04T00:06:01;96836.06;;;3.58;100.00
41334;BME280;27078;46.428;6.256;2023-03-04T00:08:26;96832.50;;;3.43;100.00
41334;BME280;27078;46.428;6.256;2023-03-04T00:10:52;96839.91;;;3.35;100.00
41334;BME280;27078;46.428;6.256;2023-03-04T00:13:18;96833.53;;;3.41;100.00
41334;BME280;27078;46.428;6.256;2023-03-04T00:15:45;96838.56;;;3.28;100.00
41334;BME280;27078;46.428;6.256;2023-03-04T00:18:10;96841.38;;;3.23;100.00
41334;BME280;27078;46.428;6.256;2023-03-04T00:20:35;96843.41;;;3.18;100.00
41334;BME280;27078;46.428;6.256;2023-03-04T00:23:01;96849.97;;;3.10;100.00
41334;BME280;27078;46.428;6.256;2023-03-04T00:25:26;96847.69;;;3.03;100.00
41334;BME280;27078;46.428;6.256;2023-03-04T00:27:51;96851.19;;;3.02;100.00
41334;BME280;27078;46.428;6.256;2023-03-04T00:30:17;96847.16;;;2.97;100.00
41334;BME280;27078;46.428;6.256;2023-03-04T00:32:42;96851.44;;;2.98;100.00
41334;BME280;27078;46.428;6.256;2023-03-04T00:35:08;96857.03;;;3.08;100.00
41334;BME280;27078;46.428;6.256;2023-03-04T00:37:33;96857.19;;;3.04;100.00
41334;BME280;27078;46.428;6.256;2023-03-04T00:39:58;96856.66;;;2.98;100.00
41334;BME280;27078;46.428;6.256;2023-03-04T00:42:24;96853.59;;;2.90;100.00
41334;BME280;27078;46.428;6.256;2023-03-04T00:44:49;96857.28;;;2.85;100.00
41334;BME280;27078;46.428;6.256;2023-03-04T00:47:15;96855.53;;;2.86;100.00
41334;BME280;27078;46.428;6.256;2023-03-04T00:49:40;96856.63;;;2.82;100.00
41334;BME280;27078;46.428;6.256;2023-03-04T00:52:06;96855.38;;;2.89;100.00
41334;BME280;27078;46.428;6.256;2023-03-04T00:54:31;96856.13;;;2.91;100.00
41334;BME280;27078;46.428;6.256;2023-03-04T00:56:57;96851.94;;;2.89;100.00
41334;BME280;27078;46.428;6.256;2023-03-04T00:59:22;96854.78;;;2.84;100.00
41334;BME280;27078;46.428;6.256;2023-03-04T01:01:47;96857.47;;;2.82;100.00
41334;BME280;27078;46.428;6.256;2023-03-04T01:04:13;96856.97;;;2.92;100.00
41334;BME280;27078;46.428;6.256;2023-03-04T01:06:38;96855.91;;;2.96;100.00
41334;BME280;27078;46.428;6.256;2023-03-04T01:09:03;96856.91;;;2.93;100.00
41334;BME280;27078;46.428;6.256;2023-03-04T01:11:29;96861.09;;;2.96;100.00
41334;BME280;27078;46.428;6.256;2023-03-04T01:13:54;96859.34;;;2.96;100.00
41334;BME280;27078;46.428;6.256;2023-03-04T01:16:19;96861.88;;;2.98;100.00
41334;BME280;27078;46.428;6.256;2023-03-04T01:18:45;96857.28;;;2.85;100.00
41334;BME280;27078;46.428;6.256;2023-03-04T01:21:11;96846.31;;;2.79;100.00
41334;BME280;27078;46.428;6.256;2023-03-04T01:23:36;96847.84;;;2.83;100.00
41334;BME280;27078;46.428;6.256;2023-03-04T01:26:02;96847.28;;;2.94;100.00
41334;BME280;27078;46.428;6.256;2023-03-04T01:28:27;96845.88;;;2.88;100.00
41334;BME280;27078;46.428;6.256;2023-03-04T01:30:53;96845.88;;;2.88;100.00
41334;BME280;27078;46.428;6.256;2023-03-04T01:33:18;96845.00;;;2.88;100.00
41334;BME280;27078;46.428;6.256;2023-03-04T01:35:44;96840.47;;;2.91;100.00
41334;BME280;27078;46.428;6.256;2023-03-04T01:38:09;96842.00;;;2.95;100.00
41334;BME280;27078;46.428;6.256;2023-03-04T01:40:35;96841.06;;;2.96;100.00
41334;BME280;27078;46.428;6.256;2023-03-04T01:43:01;96840.16;;;2.97;100.00
41334;BME280;27078;46.428;6.256;2023-03-04T01:45:27;96830.88;;;2.92;100.00
41334;BME280;27078;46.428;6.256;2023-03-04T01:47:53;96831.28;;;2.84;100.00
41334;BME280;27078;46.428;6.256;2023-03-04T01:50:31;96837.19;;;2.88;100.00
41334;BME280;27078;46.428;6.256;2023-03-04T01:52:57;96830.13;;;2.90;100.00
41334;BME280;27078;46.428;6.256;2023-03-04T01:55:23;96831.13;;;2.87;100.00
41334;BME280;27078;46.428;6.256;2023-03-04T01:57:50;96833.03;;;2.83;100.00
41334;BME280;27078;46.428;6.256;2023-03-04T02:00:23;96829.59;;;2.83;100.00
41334;BME280;27078;46.428;6.256;2023-03-04T02:02:53;96829.66;;;2.81;100.00
41334;BME280;27078;46.428;6.256;2023-03-04T02:05:20;96833.03;;;2.83;100.00
41334;BME280;27078;46.428;6.256;2023-03-04T02:07:46;96831.28;;;2.84;100.00
41334;BME280;27078;46.428;6.256;2023-03-04T02:10:12;96819.84;;;2.87;100.00
41334;BME280;27078;46.428;6.256;2023-03-04T02:12:38;96829.22;;;2.91;100.00
41334;BME280;27078;46.428;6.256;2023-03-04T02:15:04;96824.81;;;2.91;100.00
41334;BME280;27078;46.428;6.256;2023-03-04T02:17:31;96821.31;;;2.92;100.00
41334;BME280;27078;46.428;6.256;2023-03-04T02:22:33;96823.81;;;2.94;100.00
41334;BME280;27078;46.428;6.256;2023-03-04T02:25:09;96810.53;;;2.98;100.00
41334;BME280;27078;46.428;6.256;2023-03-04T02:27:35;96811.91;;;3.05;100.00
41334;BME280;27078;46.428;6.256;2023-03-04T02:30:00;96806.94;;;3.01;100.00
41334;BME280;27078;46.428;6.256;2023-03-04T02:32:26;96812.22;;;2.99;100.00
41334;BME280;27078;46.428;6.256;2023-03-04T02:34:51;96801.03;;;2.97;100.00
41334;BME280;27078;46.428;6.256;2023-03-04T02:37:18;96807.06;;;2.98;100.00
41334;BME280;27078;46.428;6.256;2023-03-04T02:39:46;96805.47;;;2.95;100.00
41334;BME280;27078;46.428;6.256;2023-03-04T02:42:12;96798.41;;;2.97;100.00
41334;BME280;27078;46.428;6.256;2023-03-04T02:44:39;96802.53;;;3.01;100.00
41334;BME280;27078;46.428;6.256;2023-03-04T02:47:08;96798.78;;;3.07;100.00
41334;BME280;27078;46.428;6.256;2023-03-04T02:49:35;96795.31;;;3.06;100.00
41334;BME280;27078;46.428;6.256;2023-03-04T02:52:05;96797.91;;;3.06;100.00
41334;BME280;27078;46.428;6.256;2023-03-04T02:54:31;96800.53;;;3.06;100.00
41334;BME280;27078;46.428;6.256;2023-03-04T02:57:05;96798.09;;;3.03;100.00
41334;BME280;27078;46.428;6.256;2023-03-04T02:59:31;96797.16;;;3.04;100.00
41334;BME280;27078;46.428;6.256;2023-03-04T03:01:56;96796.25;;;3.05;100.00
41334;BME280;27078;46.428;6.256;2023-03-04T03:04:22;96794.53;;;3.04;100.00
41334;BME280;27078;46.428;6.256;2023-03-04T03:06:48;96795.47;;;3.03;100.00
41334;BME280;27078;46.428;6.256;2023-03-04T03:09:15;96801.47;;;3.05;100.00
41334;BME280;27078;46.428;6.256;2023-03-04T03:11:40;96797.06;;;3.06;100.00
41334;BME280;27078;46.428;6.256;2023-03-04T03:14:05;96788.34;;;3.07;100.00
41334;BME280;27078;46.428;6.256;2023-03-04T03:16:31;96796.06;;;3.09;100.00
41334;BME280;27078;46.428;6.256;2023-03-04T03:18:56;96787.47;;;3.06;100.00
41334;BME280;27078;46.428;6.256;2023-03-04T03:21:22;96790.78;;;3.10;100.00
41334;BME280;27078;46.428;6.256;2023-03-04T03:23:47;96790.00;;;3.08;100.00
41334;BME280;27078;46.428;6.256;2023-03-04T03:26:14;96791.78;;;3.08;100.00
41334;BME280;27078;46.428;6.256;2023-03-04T03:28:39;96790.25;;;3.19;100.00
41334;BME280;27078;46.428;6.256;2023-03-04T03:31:05;96788.53;;;3.20;100.00
41334;BME280;27078;46.428;6.256;2023-03-04T03:33:30;96789.50;;;3.17;100.00
41334;BME280;27078;46.428;6.256;2023-03-04T03:35:56;96787.00;;;3.16;100.00
41334;BME280;27078;46.428;6.256;2023-03-04T03:38:21;96789.88;;;3.27;100.00
41334;BME280;27078;46.428;6.256;2023-03-04T03:40:46;96789.50;;;3.17;100.00
41334;BME280;27078;46.428;6.256;2023-03-04T03:43:12;96787.31;;;3.25;100.00
41334;BME280;27078;46.428;6.256;2023-03-04T03:45:37;96790.19;;;3.21;100.00
41334;BME280;27078;46.428;6.256;2023-03-04T03:48:03;96780.06;;;3.15;100.00
41334;BME280;27078;46.428;6.256;2023-03-04T03:50:28;96786.81;;;3.19;100.00
41334;BME280;27078;46.428;6.256;2023-03-04T03:52:54;96781.78;;;3.16;100.00
41334;BME280;27078;46.428;6.256;2023-03-04T03:55:20;96789.44;;;3.19;100.00
41334;BME280;27078;46.428;6.256;2023-03-04T03:57:45;96785.16;;;3.18;100.00
41334;BME280;27078;46.428;6.256;2023-03-04T04:00:11;96787.50;;;3.22;100.00
41334;BME280;27078;46.428;6.256;2023-03-04T04:02:36;96790.25;;;3.19;100.00
41334;BME280;27078;46.428;6.256;2023-03-04T04:05:02;96796.34;;;3.20;100.00
41334;BME280;27078;46.428;6.256;2023-03-04T04:07:27;96795.75;;;3.15;100.00
41334;BME280;27078;46.428;6.256;2023-03-04T04:09:53;96790.69;;;3.12;100.00
41334;BME280;27078;46.428;6.256;2023-03-04T04:12:19;96790.69;;;3.12;100.00
41334;BME280;27078;46.428;6.256;2023-03-04T04:14:44;96792.47;;;3.11;100.00
41334;BME280;27078;46.428;6.256;2023-03-04T04:17:10;96794.06;;;3.14;100.00
41334;BME280;27078;46.428;6.256;2023-03-04T04:19:36;96797.50;;;3.14;100.00
41334;BME280;27078;46.428;6.256;2023-03-04T04:22:01;96793.19;;;3.13;100.00
41334;BME280;27078;46.428;6.256;2023-03-04T04:24:27;96795.91;;;3.12;100.00
41334;BME280;27078;46.428;6.256;2023-03-04T04:26:52;96800.19;;;3.13;100.00
41334;BME280;27078;46.428;6.256;2023-03-04T04:29:18;96806.63;;;3.23;100.00
41334;BME280;27078;46.428;6.256;2023-03-04T04:31:43;96803.56;;;3.15;100.00
41334;BME280;27078;46.428;6.256;2023-03-04T04:34:09;96804.75;;;3.09;100.00
41334;BME280;27078;46.428;6.256;2023-03-04T04:36:34;96804.00;;;3.07;100.00
41334;BME280;27078;46.428;6.256;2023-03-04T04:38:59;96806.69;;;3.05;100.00
41334;BME280;27078;46.428;6.256;2023-03-04T04:41:27;96811.41;;;3.15;100.00
41334;BME280;27078;46.428;6.256;2023-03-04T04:43:54;96818.66;;;3.10;100.00
41334;BME280;27078;46.428;6.256;2023-03-04T04:46:20;96814.50;;;3.05;100.00
41334;BME280;27078;46.428;6.256;2023-03-04T04:48:46;96813.69;;;3.05;100.00
41334;BME280;27078;46.428;6.256;2023-03-04T04:51:12;96811.91;;;3.05;100.00
41334;BME280;27078;46.428;6.256;2023-03-04T04:53:37;96812.81;;;3.04;100.00
41334;BME280;27078;46.428;6.256;2023-03-04T04:56:17;96808.53;;;3.03;100.00
41334;BME280;27078;46.428;6.256;2023-03-04T04:58:44;96806.94;;;3.01;100.00
41334;BME280;27078;46.428;6.256;2023-03-04T05:01:10;96811.13;;;3.03;100.00
41334;BME280;27078;46.428;6.256;2023-03-04T05:03:36;96800.38;;;3.10;100.00
41334;BME280;27078;46.428;6.256;2023-03-04T05:06:03;96807.97;;;3.14;100.00
41334;BME280;27078;46.428;6.256;2023-03-04T05:08:29;96798.53;;;3.12;100.00
41334;BME280;27078;46.428;6.256;2023-03-04T05:10:55;96808.28;;;3.08;100.00
41334;BME280;27078;46.428;6.256;2023-03-04T05:13:20;96806.34;;;3.12;100.00
41334;BME280;27078;46.428;6.256;2023-03-04T05:15:46;96801.97;;;3.12;100.00
41334;BME280;27078;46.428;6.256;2023-03-04T05:18:11;96804.34;;;3.17;100.00
41334;BME280;27078;46.428;6.256;2023-03-04T05:20:36;96809.41;;;3.20;100.00
41334;BME280;27078;46.428;6.256;2023-03-04T05:23:02;96802.16;;;3.25;100.00
41334;BME280;27078;46.428;6.256;2023-03-04T05:25:27;96806.28;;;3.29;100.00
41334;BME280;27078;46.428;6.256;2023-03-04T05:27:53;96806.38;;;3.28;100.00
41334;BME280;27078;46.428;6.256;2023-03-04T05:30:18;96802.84;;;3.29;100.00
41334;BME280;27078;46.428;6.256;2023-03-04T05:32:44;96799.97;;;3.33;100.00
41334;BME280;27078;46.428;6.256;2023-03-04T05:35:09;96804.44;;;3.31;100.00
41334;BME280;27078;46.428;6.256;2023-03-04T05:37:34;96803.69;;;3.29;100.00
41334;BME280;27078;46.428;6.256;2023-03-04T05:40:00;96810.75;;;3.27;100.00
41334;BME280;27078;46.428;6.256;2023-03-04T05:42:25;96805.53;;;3.27;100.00
41334;BME280;27078;46.428;6.256;2023-03-04T05:44:50;96816.16;;;3.24;100.00
41334;BME280;27078;46.428;6.256;2023-03-04T05:47:16;96803.75;;;3.28;100.00
41334;BME280;27078;46.428;6.256;2023-03-04T05:49:41;96805.59;;;3.25;100.00
41334;BME280;27078;46.428;6.256;2023-03-04T05:52:07;96806.63;;;3.23;100.00
41334;BME280;27078;46.428;6.256;2023-03-04T05:54:32;96805.84;;;3.21;100.00
41334;BME280;27078;46.428;6.256;2023-03-04T05:56:57;96812.59;;;3.25;100.00
41334;BME280;27078;46.428;6.256;2023-03-04T05:59:23;96810.25;;;3.20;100.00
41334;BME280;27078;46.428;6.256;2023-03-04T06:01:49;96812.59;;;3.25;100.00
41334;BME280;27078;46.428;6.256;2023-03-04T06:04:14;96813.69;;;3.21;100.00
41334;BME280;27078;46.428;6.256;2023-03-04T06:06:39;96813.00;;;3.17;100.00
41334;BME280;27078;46.428;6.256;2023-03-04T06:09:05;96806.09;;;3.16;100.00
41334;BME280;27078;46.428;6.256;2023-03-04T06:11:30;96813.94;;;3.16;100.00
41334;BME280;27078;46.428;6.256;2023-03-04T06:13:55;96815.72;;;3.16;100.00
41334;BME280;27078;46.428;6.256;2023-03-04T06:16:20;96823.53;;;3.16;100.00
41334;BME280;27078;46.428;6.256;2023-03-04T06:18:46;96820.00;;;3.17;100.00
41334;BME280;27078;46.428;6.256;2023-03-04T06:21:11;96824.13;;;3.21;100.00
41334;BME280;27078;46.428;6.256;2023-03-04T06:23:37;96828.13;;;3.28;100.00
41334;BME280;27078;46.428;6.256;2023-03-04T06:26:02;96829.19;;;3.24;100.00
41334;BME280;27078;46.428;6.256;2023-03-04T06:28:28;96831.88;;;3.22;100.00
41334;BME280;27078;46.428;6.256;2023-03-04T06:30:55;96831.06;;;3.22;100.00
41334;BME280;27078;46.428;6.256;2023-03-04T06:33:21;96831.72;;;3.25;100.00
41334;BME280;27078;46.428;6.256;2023-03-04T06:35:46;96829.03;;;3.27;100.00
41334;BME280;27078;46.428;6.256;2023-03-04T06:38:12;96833.47;;;3.25;100.00
41334;BME280;27078;46.428;6.256;2023-03-04T06:40:37;96837.63;;;3.29;100.00
41334;BME280;27078;46.428;6.256;2023-03-04T06:43:03;96836.53;;;3.33;100.00
41334;BME280;27078;46.428;6.256;2023-03-04T06:45:28;96838.13;;;3.36;100.00
41334;BME280;27078;46.428;6.256;2023-03-04T06:47:53;96839.72;;;3.38;100.00
41334;BME280;27078;46.428;6.256;2023-03-04T06:50:19;96837.88;;;3.40;100.00
41334;BME280;27078;46.428;6.256;2023-03-04T06:52:44;96843.88;;;3.42;100.00
41334;BME280;27078;46.428;6.256;2023-03-04T06:55:10;96837.63;;;3.45;100.00
41334;BME280;27078;46.428;6.256;2023-03-04T06:57:37;96846.97;;;3.49;100.00
41334;BME280;27078;46.428;6.256;2023-03-04T07:00:03;96847.34;;;3.59;100.00
41334;BME280;27078;46.428;6.256;2023-03-04T07:02:29;96848.84;;;3.63;100.00
41334;BME280;27078;46.428;6.256;2023-03-04T07:04:55;96846.94;;;3.66;100.00
41334;BME280;27078;46.428;6.256;2023-03-04T07:07:20;96851.72;;;3.74;100.00
41334;BME280;27078;46.428;6.256;2023-03-04T07:09:45;96846.66;;;3.87;100.00
41334;BME280;27078;46.428;6.256;2023-03-04T07:12:11;96854.84;;;3.97;100.00
41334;BME280;27078;46.428;6.256;2023-03-04T07:14:36;96855.25;;;4.05;100.00
41334;BME280;27078;46.428;6.256;2023-03-04T07:17:01;96853.97;;;4.12;100.00
41334;BME280;27078;46.428;6.256;2023-03-04T07:19:27;96857.94;;;4.19;100.00
41334;BME280;27078;46.428;6.256;2023-03-04T07:21:52;96861.88;;;4.26;100.00
41334;BME280;27078;46.428;6.256;2023-03-04T07:24:18;96859.75;;;4.33;100.00
41334;BME280;27078;46.428;6.256;2023-03-04T07:26:43;96859.31;;;4.41;100.00
41334;BME280;27078;46.428;6.256;2023-03-04T07:29:08;96865.94;;;4.46;100.00
41334;BME280;27078;46.428;6.256;2023-03-04T07:31:34;96866.53;;;4.52;100.00
41334;BME280;27078;46.428;6.256;2023-03-04T07:34:04;96870.59;;;4.57;100.00
41334;BME280;27078;46.428;6.256;2023-03-04T07:36:29;96871.06;;;4.64;100.00
41334;BME280;27078;46.428;6.256;2023-03-04T07:38:55;96874.91;;;4.73;100.00
41334;BME280;27078;46.428;6.256;2023-03-04T07:41:23;96870.25;;;4.78;100.00
41334;BME280;27078;46.428;6.256;2023-03-04T07:43:49;96868.84;;;4.86;100.00
41334;BME280;27078;46.428;6.256;2023-03-04T07:46:16;96871.22;;;4.91;100.00
41334;BME280;27078;46.428;6.256;2023-03-04T07:48:42;96869.91;;;4.98;100.00
41334;BME280;27078;46.428;6.256;2023-03-04T07:53:38;96871.97;;;5.07;100.00
41334;BME280;27078;46.428;6.256;2023-03-04T07:56:05;96876.84;;;5.14;100.00
41334;BME280;27078;46.428;6.256;2023-03-04T07:58:31;96888.53;;;5.22;100.00
41334;BME280;27078;46.428;6.256;2023-03-04T08:00:57;96886.59;;;5.26;100.00
41334;BME280;27078;46.428;6.256;2023-03-04T08:03:23;96889.88;;;5.29;100.00
41334;BME280;27078;46.428;6.256;2023-03-04T08:05:48;96886.13;;;5.34;100.00
41334;BME280;27078;46.428;6.256;2023-03-04T08:08:14;96883.97;;;5.40;100.00
41334;BME280;27078;46.428;6.256;2023-03-04T08:10:39;96890.50;;;5.47;100.00
41334;BME280;27078;46.428;6.256;2023-03-04T08:13:06;96881.53;;;5.51;100.00
41334;BME280;27078;46.428;6.256;2023-03-04T08:15:31;96884.63;;;5.58;100.00
41334;BME280;27078;46.428;6.256;2023-03-04T08:17:58;96887.44;;;5.69;100.00
41334;BME280;27078;46.428;6.256;2023-03-04T08:20:23;96895.53;;;5.79;100.00
41334;BME280;27078;46.428;6.256;2023-03-04T08:22:50;96893.28;;;5.87;100.00
41334;BME280;27078;46.428;6.256;2023-03-04T08:25:15;96897.97;;;5.97;100.00
41334;BME280;27078;46.428;6.256;2023-03-04T08:27:41;96893.09;;;6.05;100.00
41334;BME280;27078;46.428;6.256;2023-03-04T08:30:07;96902.53;;;6.07;100.00
41334;BME280;27078;46.428;6.256;2023-03-04T08:32:32;96898.91;;;6.10;100.00
41334;BME280;27078;46.428;6.256;2023-03-04T08:34:57;96895.88;;;6.16;100.00
41334;BME280;27078;46.428;6.256;2023-03-04T08:37:23;96905.03;;;6.23;100.00
41334;BME280;27078;46.428;6.256;2023-03-04T08:39:48;96896.97;;;6.26;100.00
41334;BME280;27078;46.428;6.256;2023-03-04T08:42:13;96901.25;;;6.42;100.00
41334;BME280;27078;46.428;6.256;2023-03-04T08:44:39;96896.91;;;6.41;100.00
41334;BME280;27078;46.428;6.256;2023-03-04T08:47:05;96899.06;;;6.48;100.00
41334;BME280;27078;46.428;6.256;2023-03-04T08:49:33;96895.72;;;6.59;100.00
41334;BME280;27078;46.428;6.256;2023-03-04T08:51:58;96904.88;;;6.66;100.00
41334;BME280;27078;46.428;6.256;2023-03-04T08:54:23;96900.75;;;6.62;100.00
41334;BME280;27078;46.428;6.256;2023-03-04T08:56:49;96902.88;;;6.70;100.00
41334;BME280;27078;46.428;6.256;2023-03-04T08:59:14;96900.94;;;6.86;100.00
41334;BME280;27078;46.428;6.256;2023-03-04T09:01:39;96902.41;;;6.90;100.00
41334;BME280;27078;46.428;6.256;2023-03-04T09:04:05;96907.53;;;6.92;100.00
41334;BME280;27078;46.428;6.256;2023-03-04T09:06:30;96907.34;;;6.95;100.00
41334;BME280;27078;46.428;6.256;2023-03-04T09:08:55;96901.47;;;7.04;100.00
41334;BME280;27078;46.428;6.256;2023-03-04T09:11:21;96903.25;;;7.04;100.00
41334;BME280;27078;46.428;6.256;2023-03-04T09:13:46;96904.75;;;7.08;100.00
41334;BME280;27078;46.428;6.256;2023-03-04T09:16:13;96899.81;;;7.16;100.00
41334;BME280;27078;46.428;6.256;2023-03-04T09:18:39;96896.56;;;7.25;100.00
41334;BME280;27078;46.428;6.256;2023-03-04T09:21:06;96901.06;;;7.36;100.00
41334;BME280;27078;46.428;6.256;2023-03-04T09:23:33;96904.56;;;7.37;100.00
41334;BME280;27078;46.428;6.256;2023-03-04T09:25:58;96900.22;;;7.36;100.00
41334;BME280;27078;46.428;6.256;2023-03-04T09:28:23;96901.81;;;7.38;100.00
41334;BME280;27078;46.428;6.256;2023-03-04T09:30:49;96892.88;;;7.41;100.00
41334;BME280;27078;46.428;6.256;2023-03-04T09:33:14;96901.47;;;7.43;100.00
41334;BME280;27078;46.428;6.256;2023-03-04T09:35:39;96903.91;;;7.20;100.00
41334;BME280;27078;46.428;6.256;2023-03-04T09:38:05;96903.09;;;7.20;100.00
41334;BME280;27078;46.428;6.256;2023-03-04T09:40:38;96900.97;;;7.25;100.00
41334;BME280;27078;46.428;6.256;2023-03-04T09:43:06;96900.22;;;7.23;100.00
41334;BME280;27078;46.428;6.256;2023-03-04T09:45:37;96899.41;;;7.22;100.00
41334;BME280;27078;46.428;6.256;2023-03-04T09:48:06;96904.00;;;7.19;100.00
41334;BME280;27078;46.428;6.256;2023-03-04T09:50:38;96900.72;;;7.02;100.00
41334;BME280;27078;46.428;6.256;2023-03-04T09:53:20;96902.09;;;6.95;100.00
41334;BME280;27078;46.428;6.256;2023-03-04T09:55:50;96901.03;;;6.85;100.00
41334;BME280;27078;46.428;6.256;2023-03-04T10:01:43;96893.44;;;6.67;100.00
41334;BME280;27078;46.428;6.256;2023-03-04T10:06:40;96880.69;;;7.27;100.00
41334;BME280;27078;46.428;6.256;2023-03-04T10:09:25;96869.31;;;7.65;100.00
41334;BME280;27078;46.428;6.256;2023-03-04T10:12:09;96881.66;;;7.88;100.00
41334;BME280;27078;46.428;6.256;2023-03-04T10:14:37;96877.06;;;8.16;100.00
41334;BME280;27078;46.428;6.256;2023-03-04T10:17:07;96878.25;;;8.36;100.00
41334;BME280;27078;46.428;6.256;2023-03-04T10:22:34;96871.00;;;8.64;100.00
41334;BME280;27078;46.428;6.256;2023-03-04T10:25:29;96870.44;;;8.83;100.00
41334;BME280;27078;46.428;6.256;2023-03-04T10:28:01;96862.69;;;8.92;100.00
41334;BME280;27078;46.428;6.256;2023-03-04T10:33:21;96853.13;;;9.03;100.00
41334;BME280;27078;46.428;6.256;2023-03-04T10:36:05;96851.72;;;9.21;100.00
41334;BME280;27078;46.428;6.256;2023-03-04T10:38:40;96844.78;;;9.43;100.00
41334;BME280;27078;46.428;6.256;2023-03-04T10:41:19;96842.63;;;9.36;100.00
41334;BME280;27078;46.428;6.256;2023-03-04T10:46:25;96838.09;;;9.61;100.00
41334;BME280;27078;46.428;6.256;2023-03-04T10:48:52;96833.50;;;9.52;100.00
41334;BME280;27078;46.428;6.256;2023-03-04T10:51:21;96838.19;;;9.60;100.00
41334;BME280;27078;46.428;6.256;2023-03-04T10:53:52;96832.44;;;9.54;100.00
41334;BME280;27078;46.428;6.256;2023-03-04T10:56:42;96828.84;;;9.78;100.00
41334;BME280;27078;46.428;6.256;2023-03-04T10:59:30;96819.19;;;9.99;100.00
41334;BME280;27078;46.428;6.256;2023-03-04T11:04:35;96822.50;;;10.13;100.00
41334;BME280;27078;46.428;6.256;2023-03-04T11:07:01;96823.94;;;10.17;100.00
41334;BME280;27078;46.428;6.256;2023-03-04T11:09:32;96825.13;;;10.24;100.00
41334;BME280;27078;46.428;6.256;2023-03-04T11:11:58;96823.69;;;10.20;100.00
41334;BME280;27078;46.428;6.256;2023-03-04T11:14:49;96812.56;;;10.16;100.00
41334;BME280;27078;46.428;6.256;2023-03-04T11:17:38;96813.13;;;10.31;100.00
41334;BME280;27078;46.428;6.256;2023-03-04T11:22:32;96809.38;;;10.66;100.00
41334;BME280;27078;46.428;6.256;2023-03-04T11:25:06;96805.47;;;10.82;100.00
41334;BME280;27078;46.428;6.256;2023-03-04T11:27:45;96802.28;;;10.88;100.00
41334;BME280;27078;46.428;6.256;2023-03-04T11:32:45;96803.66;;;11.03;100.00
41334;BME280;27078;46.428;6.256;2023-03-04T11:35:45;96792.72;;;11.17;100.00
41334;BME280;27078;46.428;6.256;2023-03-04T11:38:16;96788.31;;;11.28;100.00
41334;BME280;27078;46.428;6.256;2023-03-04T11:40:47;96788.13;;;11.19;100.00
41334;BME280;27078;46.428;6.256;2023-03-04T11:43:36;96786.66;;;11.27;100.00
41334;BME280;27078;46.428;6.256;2023-03-04T11:52:12;96778.91;;;11.45;98.09
41334;BME280;27078;46.428;6.256;2023-03-04T12:06:23;96759.47;;;11.55;89.22
41334;BME280;27078;46.428;6.256;2023-03-04T12:09:02;96760.31;;;11.56;91.66
41334;BME280;27078;46.428;6.256;2023-03-04T12:30:00;96723.56;;;11.63;78.60
41334;BME280;27078;46.428;6.256;2023-03-04T12:33:02;96716.19;;;11.66;78.07
41334;BME280;27078;46.428;6.256;2023-03-04T12:41:21;96707.16;;;11.78;74.83
41334;BME280;27078;46.428;6.256;2023-03-04T12:44:14;96709.13;;;11.86;74.92
41334;BME280;27078;46.428;6.256;2023-03-04T12:55:07;96677.97;;;11.99;73.77
41334;BME280;27078;46.428;6.256;2023-03-04T12:57:34;96687.25;;;11.84;73.08
41334;BME280;27078;46.428;6.256;2023-03-04T13:08:27;96674.56;;;11.78;74.89
41334;BME280;27078;46.428;6.256;2023-03-04T13:11:03;96670.53;;;11.74;73.08
41334;BME280;27078;46.428;6.256;2023-03-04T13:16:59;96665.66;;;11.69;73.04
41334;BME280;27078;46.428;6.256;2023-03-04T13:19:45;96657.84;;;11.87;76.51
41334;BME280;27078;46.428;6.256;2023-03-04T13:22:32;96650.94;;;12.06;77.37
41334;BME280;27078;46.428;6.256;2023-03-04T13:25:31;96646.59;;;12.24;75.64
41334;BME280;27078;46.428;6.256;2023-03-04T13:38:23;96640.47;;;12.14;67.30
41334;BME280;27078;46.428;6.256;2023-03-04T13:43:48;96630.88;;;11.93;68.82
41334;BME280;27078;46.428;6.256;2023-03-04T13:51:31;96635.00;;;12.45;68.02
41334;BME280;27078;46.428;6.256;2023-03-04T13:59:20;96635.03;;;12.06;65.31
41334;BME280;27078;46.428;6.256;2023-03-04T14:04:16;96630.53;;;12.45;66.85
41334;BME280;27078;46.428;6.256;2023-03-04T14:06:44;96627.44;;;12.50;65.28
41334;BME280;27078;46.428;6.256;2023-03-04T14:09:17;96629.09;;;12.51;67.54
41334;BME280;27078;46.428;6.256;2023-03-04T14:11:45;96617.66;;;12.60;64.90
41334;BME280;27078;46.428;6.256;2023-03-04T14:14:17;96621.13;;;12.70;65.35
41334;BME280;27078;46.428;6.256;2023-03-04T14:16:57;96620.00;;;12.63;62.86
41334;BME280;27078;46.428;6.256;2023-03-04T14:19:31;96618.03;;;12.65;65.54
41334;BME280;27078;46.428;6.256;2023-03-04T14:21:59;96612.84;;;12.73;63.90
41334;BME280;27078;46.428;6.256;2023-03-04T14:24:26;96613.31;;;12.69;64.89
41334;BME280;27078;46.428;6.256;2023-03-04T14:27:12;96608.56;;;12.72;65.08
41334;BME280;27078;46.428;6.256;2023-03-04T14:29:37;96603.09;;;12.74;62.19
41334;BME280;27078;46.428;6.256;2023-03-04T14:32:04;96599.41;;;12.84;61.97
41334;BME280;27078;46.428;6.256;2023-03-04T14:34:34;96594.31;;;13.01;63.61
41334;BME280;27078;46.428;6.256;2023-03-04T14:37:03;96602.97;;;13.03;63.18
41334;BME280;27078;46.428;6.256;2023-03-04T14:39:41;96587.88;;;13.03;62.29
41334;BME280;27078;46.428;6.256;2023-03-04T14:42:10;96591.28;;;12.96;61.62
41334;BME280;27078;46.428;6.256;2023-03-04T14:44:43;96587.69;;;12.87;62.77
41334;BME280;27078;46.428;6.256;2023-03-04T14:47:13;96583.44;;;12.76;62.75
41334;BME280;27078;46.428;6.256;2023-03-04T14:53:12;96590.41;;;12.68;58.92
41334;BME280;27078;46.428;6.256;2023-03-04T14:55:39;96586.31;;;12.55;60.35
41334;BME280;27078;46.428;6.256;2023-03-04T14:58:07;96574.44;;;12.59;60.71
41334;BME280;27078;46.428;6.256;2023-03-04T15:00:37;96578.88;;;12.59;61.03
41334;BME280;27078;46.428;6.256;2023-03-04T15:03:25;96575.53;;;12.57;61.50